• Join FlightAware (Why Join?)
  • Login
  • US Flag 
02:48AM EDT


 

Airport Tracker/Info


-or-


 

Live Flight TrackerFlight Track Log ✈ AWI3970 ✈ 07-Jul-2013 ✈ KPHL - KALB

Flight Track Log - Related Links

Times and Time Zones

All times are in EDT time to prevent confusion due to time zone crossing. See the AWI3970 flight status page for this flight to view local times or setup timezone preferences in your user account.

Time Position Orientation Groundspeed Altitude Reporting Facility
EDT Latitude Longitude Course Direction KTS MPH feet Rate Location/Type
11:00PM 39.8667 -75.2667 37° Northeast 155 178 600  Level Philadelphia TRACON
11:01PM 39.8333 -75.3167 229° Southwest 175 201 2,700 2,100 Climbing Philadelphia TRACON
11:02PM 39.7833 -75.3667 218° Southwest 272 313 4,800 2,100 Climbing Philadelphia TRACON
11:03PM 39.7956 -74.7612 105° East  Level FlightAware Approximate
11:03PM 39.7167 -75.3333 159° South 290 334 7,200  Level Philadelphia TRACON
11:04PM 39.8199 -74.6635 37° Northeast  Level FlightAware Approximate
11:05PM 39.8950 -74.5884 37° Northeast  Level FlightAware Approximate
11:06PM 39.7364 -75.0900 84° East 326 375 11,200  Level New York Center
11:07PM 39.7561 -74.9508 80° East 346 398 12,000 360 Climbing New York Center
11:08PM 39.7747 -74.8306 79° East 370 426 12,000 1,020 Level New York Center
11:09PM 39.8125 -74.7003 69° East 380 437 14,100 1,980 Climbing New York Center
11:10PM 39.8989 -74.6131 38° Northeast 362 417 16,000 1,620 Climbing New York Center
11:11PM 39.9892 -74.5233 37° Northeast 378 435 17,400 1,380 Climbing New York Center
11:12PM 40.0903 -74.4256 36° Northeast 404 465 18,800 1,140 Climbing New York Center
11:13PM 40.1764 -74.3378 38° Northeast 419 482 19,800 1,080 Climbing New York Center
11:14PM 40.2750 -74.2450 36° Northeast 430 495 21,000 1,200 Climbing New York Center
11:15PM 40.3739 -74.1464 37° Northeast 435 501 22,200 1,080 Climbing New York Center
11:16PM 40.4764 -74.0506 35° Northeast 440 506 23,200 780 Climbing New York Center
11:17PM 40.5772 -73.9489 37° Northeast 445 512 23,900 360 Climbing New York Center
11:18PM 40.6819 -73.8469 36° Northeast 450 518 24,000  Climbing New York Center
11:19PM 40.8017 -73.7317 36° Northeast 466 536 24,000 -240 Level New York Center
11:20PM 40.9547 -73.5750 38° Northeast 464 534 23,500 -420 Descending Boston Center
11:21PM 41.0633 -73.5247 19° North 453 521 23,000 -540 Descending Boston Center
11:22PM 41.2097 -73.4719 15° North 453 521 22,400 -840 Descending Boston Center
11:23PM 41.3289 -73.4297 15° North 448 516 21,400 -1,020 Descending Boston Center
11:24PM 41.4397 -73.3925 14° North 423 487 20,400 -960 Descending Boston Center
11:25PM 41.5483 -73.3553 14° North 401 461 19,500 -1,140 Descending Boston Center
11:26PM 41.6653 -73.3406 North 386 444 18,200 -1,380 Descending Boston Center
11:27PM 41.7672 -73.3753 346° North 381 438 16,800 -1,500 Descending Boston Center
11:28PM 41.8419 -73.4125 340° North 379 436 15,500 -1,560 Descending Boston Center
11:29PM 41.9539 -73.4561 344° North 355 409 13,700 -1,620 Descending Boston Center
11:30PM 42.0453 -73.4969 342° North 335 386 12,000 -1,320 Descending Boston Center
11:31PM 42.1469 -73.5461 340° North 339 390 10,900 -600 Descending Boston Center
11:32PM 42.2133 -73.5894 334° Northwest 335 386 10,900 -840 Level Boston Center
11:33PM 42.2939 -73.6386 336° Northwest 332 382 9,400 -1,860 Descending Boston Center
11:34PM 42.3686 -73.6822 337° Northwest 297 342 7,200 -2,220 Descending Boston Center
11:35PM 42.4431 -73.7286 335° Northwest 281 323 5,000 -1,920 Descending Boston Center
11:36PM 42.5197 -73.7753 336° Northwest 253 291 3,000 -1,680 Descending Boston Center